createdAt,value
2023-02-12T00:00:50.132Z,15.45
2023-02-12T00:03:17.203Z,15.77
2023-02-12T00:05:43.825Z,15.60
2023-02-12T00:08:11.960Z,15.65
2023-02-12T00:10:43.054Z,15.38
2023-02-12T00:13:13.422Z,15.38
2023-02-12T00:15:42.050Z,16.23
2023-02-12T00:18:08.885Z,15.77
2023-02-12T00:20:36.845Z,16.08
2023-02-12T00:23:10.556Z,16.42
2023-02-12T00:25:41.925Z,15.82
2023-02-12T00:28:08.614Z,16.15
2023-02-12T00:30:35.933Z,15.52
2023-02-12T00:33:02.997Z,15.65
2023-02-12T00:35:29.726Z,15.82
2023-02-12T00:37:56.365Z,16.55
2023-02-12T00:40:22.987Z,17.08
2023-02-12T00:42:49.584Z,16.92
2023-02-12T00:45:16.290Z,16.10
2023-02-12T00:47:43.049Z,18.08
2023-02-12T00:50:10.224Z,18.60
2023-02-12T00:52:36.873Z,16.98
2023-02-12T00:55:04.088Z,16.98
2023-02-12T00:57:30.874Z,16.83
2023-02-12T00:59:57.472Z,17.52
2023-02-12T01:02:24.043Z,16.75
2023-02-12T01:04:50.698Z,17.73
2023-02-12T01:07:17.304Z,15.55
2023-02-12T01:09:43.920Z,17.70
2023-02-12T01:12:10.545Z,18.65
2023-02-12T01:14:37.128Z,16.00
2023-02-12T01:17:03.769Z,17.15
2023-02-12T01:19:30.386Z,17.02
2023-02-12T01:21:56.975Z,16.40
2023-02-12T01:24:23.623Z,18.40
2023-02-12T01:26:50.226Z,16.63
2023-02-12T01:29:16.837Z,16.42
2023-02-12T01:31:43.628Z,15.57
2023-02-12T01:34:11.695Z,16.33
2023-02-12T01:36:38.583Z,16.23
2023-02-12T01:39:06.380Z,16.50
2023-02-12T01:41:41.255Z,15.77
2023-02-12T01:44:10.698Z,15.55
2023-02-12T01:46:37.491Z,15.68
2023-02-12T01:49:07.490Z,16.92
2023-02-12T01:51:35.041Z,16.50
2023-02-12T01:54:07.409Z,17.35
2023-02-12T01:56:34.943Z,15.55
2023-02-12T01:59:01.957Z,16.40
2023-02-12T02:01:30.733Z,16.35
2023-02-12T02:04:02.032Z,16.40
2023-02-12T02:06:34.418Z,17.27
2023-02-12T02:09:02.477Z,16.52
2023-02-12T02:11:47.665Z,16.35
2023-02-12T02:14:32.648Z,16.23
2023-02-12T02:17:33.408Z,16.33
2023-02-12T02:20:27.710Z,16.25
2023-02-12T02:23:17.276Z,17.42
2023-02-12T02:26:18.219Z,16.17
2023-02-12T02:29:21.959Z,16.73
2023-02-12T02:32:22.783Z,15.35
2023-02-12T02:35:18.495Z,17.13
2023-02-12T02:38:12.745Z,17.45
2023-02-12T02:40:53.380Z,15.68
2023-02-12T02:43:27.988Z,16.48
2023-02-12T02:46:03.110Z,16.92
2023-02-12T02:48:36.599Z,16.58
2023-02-12T02:51:14.433Z,16.85
2023-02-12T02:53:53.699Z,14.90
2023-02-12T02:56:22.959Z,16.38
2023-02-12T02:58:57.725Z,17.48
2023-02-12T03:01:38.487Z,16.52
2023-02-12T03:04:17.447Z,15.65
2023-02-12T03:06:50.568Z,17.27
2023-02-12T03:09:32.586Z,16.42
2023-02-12T03:12:05.258Z,16.85
2023-02-12T03:14:59.440Z,18.25
2023-02-12T03:17:32.467Z,16.65
2023-02-12T03:20:16.538Z,19.08
2023-02-12T03:22:51.358Z,17.98
2023-02-12T03:25:26.569Z,16.70
2023-02-12T03:28:11.268Z,17.75
2023-02-12T03:31:07.138Z,16.40
2023-02-12T03:33:45.913Z,17.27
2023-02-12T03:36:38.126Z,17.40
2023-02-12T03:39:15.119Z,17.08
2023-02-12T03:41:50.244Z,18.52
2023-02-12T03:44:20.086Z,17.38
2023-02-12T03:47:02.911Z,16.88
2023-02-12T03:49:32.209Z,16.60
2023-02-12T03:51:59.282Z,17.35
2023-02-12T03:54:26.786Z,16.83
2023-02-12T03:57:10.393Z,17.48
2023-02-12T03:59:39.164Z,18.35
2023-02-12T04:02:06.985Z,18.33
2023-02-12T04:04:34.883Z,18.13
2023-02-12T04:07:02.094Z,18.27
2023-02-12T04:09:30.942Z,18.45
2023-02-12T04:12:31.025Z,17.45
2023-02-12T04:15:22.379Z,17.95
2023-02-12T04:18:08.784Z,17.90
2023-02-12T04:20:41.752Z,17.45
2023-02-12T04:23:23.182Z,16.95
2023-02-12T04:26:10.156Z,18.23
2023-02-12T04:29:06.096Z,17.20
2023-02-12T04:31:42.462Z,16.20
2023-02-12T04:34:28.077Z,16.90
2023-02-12T04:37:02.650Z,18.00
2023-02-12T04:39:32.779Z,16.45
2023-02-12T04:42:01.044Z,16.85
2023-02-12T04:44:31.269Z,18.05
2023-02-12T04:46:58.233Z,17.30
2023-02-12T04:49:26.071Z,17.40
2023-02-12T04:51:53.045Z,16.60
2023-02-12T04:54:20.966Z,17.58
2023-02-12T04:56:48.116Z,16.08
2023-02-12T04:59:15.380Z,15.70
2023-02-12T05:01:43.094Z,17.85
2023-02-12T05:04:15.141Z,16.48
2023-02-12T05:06:43.265Z,18.83
2023-02-12T05:09:14.270Z,18.40
2023-02-12T05:11:40.876Z,17.10
2023-02-12T05:14:07.553Z,17.40
2023-02-12T05:16:34.211Z,16.70
2023-02-12T05:19:00.968Z,17.42
2023-02-12T05:21:27.689Z,17.77
2023-02-12T05:23:54.353Z,19.50
2023-02-12T05:26:22.218Z,18.15
2023-02-12T05:28:49.066Z,18.38
2023-02-12T05:31:21.106Z,17.20
2023-02-12T05:33:48.901Z,18.05
2023-02-12T05:36:21.879Z,18.05
2023-02-12T05:38:49.591Z,17.23
2023-02-12T05:41:21.932Z,17.30
2023-02-12T05:43:49.888Z,17.45
2023-02-12T05:46:18.137Z,17.73
2023-02-12T05:48:44.962Z,18.67
2023-02-12T05:51:17.853Z,17.98
2023-02-12T05:53:44.515Z,16.90
2023-02-12T05:56:14.297Z,18.20
2023-02-12T05:58:42.850Z,18.67
2023-02-12T06:01:18.655Z,18.50
2023-02-12T06:03:45.460Z,17.05
2023-02-12T06:06:12.698Z,17.58
2023-02-12T06:08:40.110Z,17.95
2023-02-12T06:11:10.885Z,18.02
2023-02-12T06:13:37.524Z,18.35
2023-02-12T06:16:04.827Z,17.83
2023-02-12T06:18:31.910Z,17.85
2023-02-12T06:20:58.585Z,19.40
2023-02-12T06:23:25.441Z,16.60
2023-02-12T06:25:57.010Z,17.33
2023-02-12T06:28:23.936Z,17.92
2023-02-12T06:30:50.830Z,18.42
2023-02-12T06:33:17.522Z,16.02
2023-02-12T06:35:44.175Z,17.67
2023-02-12T06:38:10.905Z,14.77
2023-02-12T06:40:37.480Z,17.48
2023-02-12T06:43:04.115Z,19.13
2023-02-12T06:45:30.747Z,17.95
2023-02-12T06:47:57.365Z,17.80
2023-02-12T06:50:24.570Z,17.98
2023-02-12T06:52:51.301Z,17.58
2023-02-12T06:55:18.178Z,16.45
2023-02-12T06:57:44.889Z,18.63
2023-02-12T07:00:12.533Z,18.55
2023-02-12T07:02:39.225Z,19.73
2023-02-12T07:05:06.337Z,17.75
2023-02-12T07:07:33.446Z,19.17
2023-02-12T07:10:00.105Z,20.50
2023-02-12T07:12:26.723Z,19.40
2023-02-12T07:14:53.346Z,19.40
2023-02-12T07:17:19.996Z,19.70
2023-02-12T07:19:46.613Z,19.98
2023-02-12T07:22:13.222Z,20.35
2023-02-12T07:24:40.093Z,17.77
2023-02-12T07:27:06.717Z,17.77
2023-02-12T07:29:33.421Z,17.15
2023-02-12T07:32:00.776Z,17.75
2023-02-12T07:34:27.435Z,19.30
2023-02-12T07:36:54.037Z,19.00
2023-02-12T07:39:20.753Z,16.98
2023-02-12T07:41:47.387Z,18.98
2023-02-12T07:44:14.040Z,17.67
2023-02-12T07:46:45.671Z,18.90
2023-02-12T07:49:20.040Z,18.05
2023-02-12T07:51:47.124Z,17.55
2023-02-12T07:54:14.415Z,20.92
2023-02-12T07:56:42.750Z,16.98
2023-02-12T07:59:14.727Z,18.38
2023-02-12T08:01:45.240Z,17.40
2023-02-12T08:04:14.335Z,19.33
2023-02-12T08:06:43.888Z,19.42
2023-02-12T08:09:13.482Z,19.65
2023-02-12T08:11:41.925Z,20.05
2023-02-12T08:14:10.761Z,19.42
2023-02-12T08:16:39.485Z,21.60
2023-02-12T08:19:17.572Z,23.30
2023-02-12T08:21:47.195Z,21.40
2023-02-12T08:24:13.874Z,22.10
2023-02-12T08:26:40.750Z,20.98
2023-02-12T08:29:09.855Z,24.45
2023-02-12T08:31:41.857Z,21.95
2023-02-12T08:34:18.530Z,23.48
2023-02-12T08:36:45.404Z,21.95
2023-02-12T08:39:12.475Z,21.85
2023-02-12T08:41:42.154Z,23.02
2023-02-12T08:44:09.759Z,22.60
2023-02-12T08:46:39.608Z,23.27
2023-02-12T08:49:11.778Z,23.45
2023-02-12T08:51:40.747Z,24.00
2023-02-12T08:54:12.309Z,23.60
2023-02-12T08:56:39.737Z,24.30
2023-02-12T08:59:07.664Z,24.00
2023-02-12T09:01:38.530Z,23.05
2023-02-12T09:04:05.880Z,23.58
2023-02-12T09:06:34.855Z,25.73
2023-02-12T09:09:02.458Z,23.65
2023-02-12T09:11:32.902Z,23.60
2023-02-12T09:14:02.072Z,26.58
2023-02-12T09:16:31.136Z,24.13
2023-02-12T09:18:58.582Z,24.75
2023-02-12T09:21:25.607Z,26.35
2023-02-12T09:23:52.817Z,23.15
2023-02-12T09:26:21.782Z,22.95
2023-02-12T09:28:49.981Z,23.25
2023-02-12T09:31:26.672Z,24.90
2023-02-12T09:33:55.564Z,24.60
2023-02-12T09:36:22.439Z,26.20
2023-02-12T09:38:49.656Z,29.35
2023-02-12T09:41:38.142Z,25.35
2023-02-12T09:44:29.914Z,26.17
2023-02-12T09:47:04.868Z,23.65
2023-02-12T09:49:49.943Z,27.67
2023-02-12T09:52:20.412Z,27.30
2023-02-12T09:54:48.704Z,26.48
2023-02-12T09:57:26.362Z,25.80
2023-02-12T09:59:58.193Z,24.52
2023-02-12T10:02:25.199Z,27.15
2023-02-12T10:05:01.006Z,25.38
2023-02-12T10:07:48.391Z,26.30
2023-02-12T10:10:21.846Z,26.48
2023-02-12T10:13:03.841Z,25.02
2023-02-12T10:16:01.578Z,23.00
2023-02-12T10:18:49.559Z,24.15
2023-02-12T10:21:51.635Z,23.77
2023-02-12T10:24:27.158Z,24.30
2023-02-12T10:26:58.498Z,23.20
2023-02-12T10:29:30.174Z,26.35
2023-02-12T10:32:13.047Z,24.35
2023-02-12T10:34:42.379Z,24.15
2023-02-12T10:37:37.269Z,21.60
2023-02-12T10:40:16.695Z,24.10
2023-02-12T10:42:47.153Z,22.30
2023-02-12T10:45:16.488Z,22.88
2023-02-12T10:47:45.935Z,25.20
2023-02-12T10:50:49.862Z,25.10
2023-02-12T10:53:24.710Z,23.65
2023-02-12T10:56:11.331Z,26.08
2023-02-12T10:58:50.238Z,23.48
2023-02-12T11:01:34.140Z,23.35
2023-02-12T11:04:26.151Z,24.58
2023-02-12T11:07:07.949Z,21.40
2023-02-12T11:09:45.398Z,21.90
2023-02-12T11:12:32.510Z,25.40
2023-02-12T11:15:02.786Z,21.98
2023-02-12T11:17:41.075Z,22.55
2023-02-12T11:20:16.489Z,24.08
2023-02-12T11:23:03.069Z,22.15
2023-02-12T11:25:32.442Z,22.02
2023-02-12T11:28:05.944Z,21.38
2023-02-12T11:30:33.046Z,21.90
2023-02-12T11:33:16.537Z,21.52
2023-02-12T11:36:12.004Z,21.50
2023-02-12T11:38:47.843Z,21.08
2023-02-12T11:41:36.007Z,21.75
2023-02-12T11:44:19.859Z,21.58
2023-02-12T11:46:56.311Z,20.92
2023-02-12T11:49:28.362Z,23.40
2023-02-12T11:51:57.011Z,20.85
2023-02-12T11:54:27.244Z,20.65
2023-02-12T11:56:55.400Z,20.65
2023-02-12T11:59:31.683Z,22.90
2023-02-12T12:02:20.629Z,21.40
2023-02-12T12:04:51.778Z,22.38
2023-02-12T12:07:29.777Z,21.80
2023-02-12T12:10:10.780Z,20.98
2023-02-12T12:12:48.152Z,20.70
2023-02-12T12:15:48.256Z,22.48
2023-02-12T12:18:48.788Z,20.17
2023-02-12T12:21:36.785Z,21.40
2023-02-12T12:24:15.569Z,19.17
2023-02-12T12:26:47.403Z,19.15
2023-02-12T12:29:26.826Z,19.05
2023-02-12T12:32:01.536Z,19.70
2023-02-12T12:34:29.170Z,19.35
2023-02-12T12:36:58.878Z,18.92
2023-02-12T12:39:34.853Z,19.88
2023-02-12T12:42:28.329Z,18.52
2023-02-12T12:45:32.404Z,18.83
2023-02-12T12:48:20.119Z,18.48
2023-02-12T12:51:27.703Z,19.20
2023-02-12T12:54:21.494Z,17.92
2023-02-12T12:57:23.638Z,16.85
2023-02-12T13:00:25.696Z,14.35
2023-02-12T13:03:10.984Z,13.10
2023-02-12T13:06:07.872Z,14.10
2023-02-12T13:09:03.525Z,13.85
2023-02-12T13:11:40.915Z,16.85
2023-02-12T13:14:18.036Z,18.67
2023-02-12T13:16:59.143Z,15.82
2023-02-12T13:20:01.815Z,15.45
2023-02-12T13:22:40.381Z,14.95
2023-02-12T13:25:21.538Z,16.08
2023-02-12T13:27:50.389Z,16.75
2023-02-12T13:30:48.910Z,17.15
2023-02-12T13:33:21.639Z,17.40
2023-02-12T13:35:53.812Z,19.50
2023-02-12T13:38:29.472Z,17.73
2023-02-12T13:41:02.096Z,15.90
2023-02-12T13:43:34.604Z,14.82
2023-02-12T13:46:18.663Z,15.70
2023-02-12T13:49:14.331Z,17.25
2023-02-12T13:51:52.056Z,16.83
2023-02-12T13:54:24.677Z,16.15
2023-02-12T13:56:56.819Z,15.70
2023-02-12T13:59:32.438Z,17.50
2023-02-12T14:02:22.325Z,16.65
2023-02-12T14:05:20.979Z,17.48
2023-02-12T14:07:51.224Z,14.95
2023-02-12T14:10:29.835Z,15.35
2023-02-12T14:13:24.204Z,16.15
2023-02-12T14:15:53.238Z,14.95
2023-02-12T14:18:35.885Z,17.38
2023-02-12T14:21:11.347Z,16.23
2023-02-12T14:23:46.024Z,15.85
2023-02-12T14:26:15.403Z,16.98
2023-02-12T14:28:54.816Z,16.35
2023-02-12T14:31:27.635Z,15.90
2023-02-12T14:34:06.717Z,18.55
2023-02-12T14:36:33.375Z,17.15
2023-02-12T14:39:03.754Z,17.45
2023-02-12T14:41:34.643Z,17.70
2023-02-12T14:44:27.306Z,15.80
2023-02-12T14:46:59.776Z,15.13
2023-02-12T14:49:55.628Z,16.50
2023-02-12T14:52:27.360Z,15.90
2023-02-12T14:55:00.159Z,17.10
2023-02-12T14:57:32.741Z,17.30
2023-02-12T15:00:20.803Z,16.58
2023-02-12T15:02:59.543Z,17.00
2023-02-12T15:05:43.556Z,16.80
2023-02-12T15:08:41.252Z,14.80
2023-02-12T15:11:21.851Z,16.45
2023-02-12T15:14:08.811Z,16.17
2023-02-12T15:16:38.126Z,15.07
2023-02-12T15:19:10.657Z,14.40
2023-02-12T15:21:38.090Z,14.38
2023-02-12T15:24:13.027Z,13.05
2023-02-12T15:26:42.492Z,14.35
2023-02-12T15:29:25.994Z,14.15
2023-02-12T15:31:55.840Z,13.02
2023-02-12T15:34:26.150Z,13.43
2023-02-12T15:36:54.754Z,13.80
2023-02-12T15:39:23.612Z,12.77
2023-02-12T15:41:51.054Z,12.63
2023-02-12T15:44:32.203Z,13.30
2023-02-12T15:47:12.333Z,11.68
2023-02-12T15:49:41.538Z,10.85
2023-02-12T15:52:09.961Z,11.30
2023-02-12T15:54:38.078Z,11.80
2023-02-12T15:57:11.133Z,11.35
2023-02-12T15:59:38.193Z,11.65
2023-02-12T16:02:19.508Z,10.55
2023-02-12T16:04:46.674Z,11.20
2023-02-12T16:07:14.915Z,11.18
2023-02-12T16:09:42.552Z,10.90
2023-02-12T16:12:18.278Z,11.20
2023-02-12T16:14:54.399Z,11.15
2023-02-12T16:17:38.087Z,10.85
2023-02-12T16:20:22.907Z,10.23
2023-02-12T16:22:50.477Z,11.60
2023-02-12T16:25:18.509Z,11.15
2023-02-12T16:28:00.850Z,10.50
2023-02-12T16:30:34.885Z,11.60
2023-02-12T16:33:02.380Z,10.77
2023-02-12T16:35:32.254Z,11.25
2023-02-12T16:38:21.724Z,9.90
2023-02-12T16:41:20.472Z,10.52
2023-02-12T16:43:49.837Z,10.30
2023-02-12T16:46:17.956Z,11.27
2023-02-12T16:48:49.311Z,10.15
2023-02-12T16:51:30.477Z,9.60
2023-02-12T16:53:59.507Z,10.65
2023-02-12T16:56:29.657Z,10.65
2023-02-12T16:59:00.749Z,10.50
2023-02-12T17:01:28.858Z,9.77
2023-02-12T17:03:57.606Z,10.85
2023-02-12T17:06:27.187Z,9.63
2023-02-12T17:08:53.833Z,9.63
2023-02-12T17:11:21.270Z,10.63
2023-02-12T17:13:50.316Z,11.07
2023-02-12T17:16:29.760Z,11.32
2023-02-12T17:18:57.755Z,10.05
2023-02-12T17:21:30.590Z,10.18
2023-02-12T17:23:57.274Z,11.93
2023-02-12T17:26:24.730Z,10.93
2023-02-12T17:28:51.366Z,11.52
2023-02-12T17:31:19.438Z,12.43
2023-02-12T17:33:46.264Z,11.05
2023-02-12T17:36:13.031Z,11.32
2023-02-12T17:38:39.755Z,10.77
2023-02-12T17:41:10.620Z,11.18
2023-02-12T17:43:37.351Z,10.93
2023-02-12T17:46:10.279Z,12.00
2023-02-12T17:48:37.076Z,12.32
2023-02-12T17:51:03.865Z,11.65
2023-02-12T17:53:30.478Z,11.35
2023-02-12T17:55:57.077Z,12.05
2023-02-12T17:58:23.776Z,10.52
2023-02-12T18:00:50.438Z,12.18
2023-02-12T18:03:17.053Z,12.35
2023-02-12T18:05:43.784Z,11.32
2023-02-12T18:08:10.669Z,12.07
2023-02-12T18:10:44.646Z,11.57
2023-02-12T18:13:13.663Z,12.20
2023-02-12T18:15:41.164Z,12.43
2023-02-12T18:18:08.394Z,12.02
2023-02-12T18:20:35.488Z,12.05
2023-02-12T18:23:03.358Z,12.32
2023-02-12T18:25:30.007Z,12.15
2023-02-12T18:27:56.614Z,12.00
2023-02-12T18:30:23.504Z,11.65
2023-02-12T18:32:50.116Z,12.30
2023-02-12T18:35:16.826Z,11.75
2023-02-12T18:37:43.611Z,12.65
2023-02-12T18:40:11.079Z,12.38
2023-02-12T18:42:37.718Z,12.07
2023-02-12T18:45:04.821Z,12.20
2023-02-12T18:47:31.483Z,12.50
2023-02-12T18:49:58.144Z,13.18
2023-02-12T18:52:25.170Z,12.07
2023-02-12T18:54:53.099Z,12.07
2023-02-12T18:57:19.909Z,12.05
2023-02-12T18:59:46.536Z,12.07
2023-02-12T19:02:14.241Z,13.27
2023-02-12T19:04:41.056Z,12.43
2023-02-12T19:07:07.700Z,12.85
2023-02-12T19:09:34.302Z,12.90
2023-02-12T19:12:00.954Z,12.20
2023-02-12T19:14:28.745Z,12.90
2023-02-12T19:16:55.391Z,11.75
2023-02-12T19:19:22.255Z,13.13
2023-02-12T19:21:49.580Z,12.75
2023-02-12T19:24:17.257Z,13.10
2023-02-12T19:26:44.397Z,14.20
2023-02-12T19:29:12.297Z,12.93
2023-02-12T19:31:41.376Z,11.90
2023-02-12T19:34:15.911Z,12.00
2023-02-12T19:36:43.530Z,12.10
2023-02-12T19:39:13.489Z,13.25
2023-02-12T19:41:43.351Z,12.02
2023-02-12T19:44:12.824Z,11.70
2023-02-12T19:46:40.493Z,11.70
2023-02-12T19:49:08.297Z,11.30
2023-02-12T19:51:34.981Z,12.50
2023-02-12T19:54:03.016Z,11.43
2023-02-12T19:56:30.230Z,11.32
2023-02-12T19:58:57.764Z,12.35
2023-02-12T20:01:25.229Z,12.35
2023-02-12T20:03:52.364Z,11.02
2023-02-12T20:06:24.354Z,12.38
2023-02-12T20:08:51.640Z,11.70
2023-02-12T20:11:21.382Z,12.20
2023-02-12T20:13:48.610Z,11.00
2023-02-12T20:16:22.250Z,12.00
2023-02-12T20:18:52.021Z,11.18
2023-02-12T20:21:21.933Z,9.80
2023-02-12T20:23:48.656Z,11.63
2023-02-12T20:26:16.916Z,10.70
2023-02-12T20:28:43.951Z,10.80
2023-02-12T20:31:17.713Z,10.60
2023-02-12T20:33:45.408Z,12.48
2023-02-12T20:36:13.733Z,11.07
2023-02-12T20:38:42.024Z,10.65
2023-02-12T20:41:09.604Z,10.60
2023-02-12T20:43:37.349Z,10.07
2023-02-12T20:46:24.926Z,11.50
2023-02-12T20:48:54.027Z,10.05
2023-02-12T20:51:23.310Z,10.25
2023-02-12T20:53:50.532Z,10.63
2023-02-12T20:56:20.997Z,11.02
2023-02-12T20:58:47.873Z,10.57
2023-02-12T21:01:17.475Z,9.85
2023-02-12T21:03:44.931Z,11.30
2023-02-12T21:06:12.063Z,11.35
2023-02-12T21:08:40.146Z,10.52
2023-02-12T21:11:12.873Z,11.32
2023-02-12T21:13:39.593Z,11.98
2023-02-12T21:16:18.213Z,11.32
2023-02-12T21:18:45.551Z,11.57
2023-02-12T21:21:17.450Z,11.60
2023-02-12T21:23:44.771Z,11.25
2023-02-12T21:26:18.155Z,11.65
2023-02-12T21:28:45.913Z,10.60
2023-02-12T21:31:15.484Z,9.77
2023-02-12T21:33:43.760Z,11.93
2023-02-12T21:36:22.020Z,11.20
2023-02-12T21:38:50.046Z,10.63
2023-02-12T21:41:19.163Z,11.15
2023-02-12T21:43:49.332Z,11.07
2023-02-12T21:46:16.890Z,11.43
2023-02-12T21:48:44.943Z,11.48
2023-02-12T21:51:26.336Z,10.15
2023-02-12T21:53:55.935Z,10.93
2023-02-12T21:56:23.261Z,10.20
2023-02-12T21:58:52.868Z,10.52
2023-02-12T22:01:22.846Z,10.40
2023-02-12T22:03:50.517Z,10.80
2023-02-12T22:06:19.126Z,10.98
2023-02-12T22:08:46.517Z,9.85
2023-02-12T22:11:13.871Z,9.98
2023-02-12T22:13:41.044Z,9.98
2023-02-12T22:16:09.080Z,9.18
2023-02-12T22:18:36.236Z,10.70
2023-02-12T22:21:04.485Z,9.27
2023-02-12T22:23:32.096Z,10.05
2023-02-12T22:26:13.773Z,10.40
2023-02-12T22:28:44.454Z,10.60
2023-02-12T22:31:12.650Z,10.30
2023-02-12T22:33:39.574Z,10.70
2023-02-12T22:36:08.731Z,11.20
2023-02-12T22:38:36.870Z,11.23
2023-02-12T22:41:04.817Z,10.32
2023-02-12T22:43:33.246Z,11.10
2023-02-12T22:45:59.988Z,11.85
2023-02-12T22:48:28.463Z,10.07
2023-02-12T22:50:56.655Z,10.50
2023-02-12T22:53:24.260Z,10.02
2023-02-12T22:55:51.260Z,10.82
2023-02-12T22:58:18.025Z,10.98
2023-02-12T23:00:45.065Z,10.30
2023-02-12T23:03:11.743Z,11.20
2023-02-12T23:05:39.345Z,10.93
2023-02-12T23:08:06.523Z,11.25
2023-02-12T23:10:33.791Z,10.15
2023-02-12T23:13:02.180Z,10.30
2023-02-12T23:15:29.377Z,10.10
2023-02-12T23:17:56.098Z,9.90
2023-02-12T23:20:22.812Z,9.38
2023-02-12T23:22:49.459Z,8.65
2023-02-12T23:25:16.117Z,9.02
2023-02-12T23:27:42.738Z,9.27
2023-02-12T23:30:09.809Z,9.00
2023-02-12T23:32:36.422Z,9.38
2023-02-12T23:35:03.091Z,10.00
2023-02-12T23:37:29.717Z,9.93
2023-02-12T23:39:56.348Z,9.25
2023-02-12T23:42:23.017Z,9.48
2023-02-12T23:44:49.638Z,8.45
2023-02-12T23:47:16.292Z,9.50
2023-02-12T23:49:42.891Z,8.98
2023-02-12T23:52:09.540Z,8.52
2023-02-12T23:54:36.298Z,8.40
2023-02-12T23:57:03.264Z,8.40
2023-02-12T23:59:29.894Z,8.82
